Time;durP1;ratioP1;P1;durP2;ratioP2;P2;SDS_P1;SDS_P2;PMS_P1;PMS_P2;Temp;Humidity;BMP_temperature;BMP_pressure;BME280_temperature;BME280_humidity;BME280_pressure;Samples;Min_cycle;Max_cycle;Signal;HPM_P1;HPM_P2
2022/12/02 00:00:28;;;;;;;;;0.00;0.00;;;;;;;;5103839;27;27946;-96
2022/12/02 00:02:55;;;;;;;;;0.00;0.00;;;;;;;;5095409;28;29980;-96
2022/12/02 00:05:27;;;;;;;;;0.00;0.00;;;;;;;;5077457;28;28854;-96
2022/12/02 00:07:54;;;;;;;;;0.00;0.00;;;;;;;;5077178;28;28425;-96
2022/12/02 00:10:19;;;;;;;;;0.00;0.00;;;;;;;;5078371;28;28510;-96
2022/12/02 00:12:44;;;;;;;;;0.00;0.00;;;;;;;;5078101;28;29929;-95
2022/12/02 00:15:28;;;;;;;;;0.00;0.00;;;;;;;;5077493;28;28581;-96
2022/12/02 00:17:53;;;;;;;;;0.00;0.00;;;;;;;;5076714;28;28403;-96
2022/12/02 00:20:18;;;;;;;;;0.00;0.00;;;;;;;;5076387;28;28302;-96
2022/12/02 00:22:43;;;;;;;;;0.00;0.00;;;;;;;;5077596;28;29668;-95
2022/12/02 00:25:09;;;;;;;;;0.00;0.00;;;;;;;;5077099;28;28467;-96
2022/12/02 00:27:34;;;;;;;;;0.00;0.00;;;;;;;;5077463;28;28798;-96
2022/12/02 00:29:59;;;;;;;;;0.00;0.00;;;;;;;;5077616;28;28966;-96
2022/12/02 00:32:24;;;;;;;;;0.00;0.00;;;;;;;;5076290;28;30159;-96
2022/12/02 00:34:49;;;;;;;;;0.00;0.00;;;;;;;;5076424;28;28916;-96
2022/12/02 00:37:15;;;;;;;;;0.00;0.00;;;;;;;;5078404;28;27841;-96
2022/12/02 00:39:40;;;;;;;;;0.00;0.00;;;;;;;;5077448;28;28256;-96
2022/12/02 00:42:05;;;;;;;;;0.00;0.00;;;;;;;;5090326;27;29775;-96
2022/12/02 00:47:14;;;;;;;;;0.00;0.00;;;;;;;;5116429;27;28332;-96
2022/12/02 00:49:39;;;;;;;;;0.00;0.00;;;;;;;;5103188;27;28339;-96
2022/12/02 00:52:05;;;;;;;;;0.00;0.00;;;;;;;;5105283;27;29949;-96
2022/12/02 00:54:30;;;;;;;;;0.00;0.00;;;;;;;;5105656;27;28550;-95
2022/12/02 00:56:55;;;;;;;;;0.00;0.00;;;;;;;;5103749;27;28590;-96
2022/12/02 00:59:20;;;;;;;;;0.67;0.67;;;;;;;;5103568;27;28445;-96
2022/12/02 01:01:46;;;;;;;;;1.00;1.00;;;;;;;;5103160;27;29694;-96
2022/12/02 01:04:11;;;;;;;;;0.00;0.00;;;;;;;;5100193;27;28717;-96
2022/12/02 01:06:36;;;;;;;;;1.00;1.00;;;;;;;;5096845;27;28384;-96
2022/12/02 01:09:01;;;;;;;;;0.00;0.00;;;;;;;;5096377;27;28508;-96
2022/12/02 01:11:27;;;;;;;;;0.00;0.00;;;;;;;;5095386;27;29996;-96
2022/12/02 01:13:52;;;;;;;;;0.00;0.00;;;;;;;;5095840;27;28540;-96
2022/12/02 01:16:17;;;;;;;;;0.00;0.00;;;;;;;;5097113;27;28599;-96
2022/12/02 01:18:42;;;;;;;;;0.00;0.00;;;;;;;;5098233;27;27932;-96
2022/12/02 01:21:07;;;;;;;;;0.67;0.67;;;;;;;;5101031;27;30789;-96
2022/12/02 01:23:33;;;;;;;;;0.00;0.00;;;;;;;;5100593;27;28768;-96
2022/12/02 01:25:58;;;;;;;;;0.00;0.00;;;;;;;;5101451;27;28269;-96
2022/12/02 01:28:23;;;;;;;;;0.00;0.00;;;;;;;;5097355;27;28523;-96
2022/12/02 01:30:48;;;;;;;;;0.00;0.00;;;;;;;;5098064;27;29970;-96
2022/12/02 01:33:14;;;;;;;;;0.00;0.00;;;;;;;;5097062;28;28806;-96
2022/12/02 01:35:39;;;;;;;;;0.00;0.00;;;;;;;;5096878;27;28357;-96
2022/12/02 01:38:04;;;;;;;;;3.00;3.00;;;;;;;;5096065;28;28354;-96
2022/12/02 01:40:30;;;;;;;;;0.00;0.00;;;;;;;;5096293;28;30548;-96
2022/12/02 01:42:55;;;;;;;;;0.00;0.00;;;;;;;;5096208;27;28633;-96
2022/12/02 01:45:20;;;;;;;;;0.00;0.00;;;;;;;;5096185;28;28406;-96
2022/12/02 01:47:46;;;;;;;;;0.00;0.00;;;;;;;;5096352;27;27883;-96
2022/12/02 01:50:13;;;;;;;;;0.00;0.00;;;;;;;;5096341;27;30810;-96
2022/12/02 01:52:39;;;;;;;;;0.00;0.00;;;;;;;;5097712;28;28796;-96
2022/12/02 01:55:05;;;;;;;;;0.00;0.00;;;;;;;;5103216;27;28384;-96
2022/12/02 01:57:31;;;;;;;;;0.00;0.00;;;;;;;;5103639;27;28599;-96
2022/12/02 01:59:56;;;;;;;;;0.00;0.00;;;;;;;;5103651;27;30048;-96
2022/12/02 02:02:27;;;;;;;;;0.00;0.00;;;;;;;;5103392;28;28942;-96
2022/12/02 02:04:54;;;;;;;;;0.00;0.00;;;;;;;;5103701;28;28399;-95
2022/12/02 02:07:19;;;;;;;;;0.00;0.00;;;;;;;;5100357;27;28441;-96
2022/12/02 02:09:44;;;;;;;;;0.00;0.00;;;;;;;;5095488;27;29984;-96
2022/12/02 02:12:09;;;;;;;;;0.00;0.00;;;;;;;;5095464;27;30042;-96
2022/12/02 02:14:35;;;;;;;;;0.00;0.00;;;;;;;;5095308;28;28512;-96
2022/12/02 02:17:00;;;;;;;;;0.00;0.00;;;;;;;;5093426;27;27802;-96
2022/12/02 02:19:25;;;;;;;;;0.00;0.00;;;;;;;;5094865;28;30236;-96
2022/12/02 02:21:52;;;;;;;;;3.00;3.00;;;;;;;;5094618;28;28437;-95
2022/12/02 02:24:17;;;;;;;;;0.00;0.00;;;;;;;;5095681;27;28383;-96
2022/12/02 02:26:42;;;;;;;;;0.00;0.00;;;;;;;;5095272;28;28407;-96
2022/12/02 02:29:07;;;;;;;;;0.00;0.00;;;;;;;;5095119;27;29634;-96
2022/12/02 02:31:33;;;;;;;;;0.00;0.00;;;;;;;;5093318;27;28815;-95
2022/12/02 02:33:58;;;;;;;;;0.00;0.00;;;;;;;;5094585;28;28353;-96
2022/12/02 02:36:23;;;;;;;;;0.00;0.00;;;;;;;;5095052;28;28358;-96
2022/12/02 02:38:49;;;;;;;;;0.00;0.00;;;;;;;;5093876;27;29907;-95
2022/12/02 02:41:14;;;;;;;;;0.00;0.00;;;;;;;;5090746;27;28525;-96
2022/12/02 02:43:39;;;;;;;;;0.00;0.00;;;;;;;;5073626;28;28414;-96
2022/12/02 02:46:06;;;;;;;;;2.00;2.00;;;;;;;;5073586;28;28473;-95
2022/12/02 02:48:31;;;;;;;;;0.00;0.00;;;;;;;;5073742;28;30437;-96
2022/12/02 02:50:56;;;;;;;;;9.00;9.00;;;;;;;;5073576;28;28837;-96
2022/12/02 02:53:23;;;;;;;;;178.00;178.00;;;;;;;;5073151;28;28681;-96
2022/12/02 02:55:48;;;;;;;;;0.00;0.00;;;;;;;;5076284;28;27905;-96
2022/12/02 02:58:13;;;;;;;;;0.00;0.00;;;;;;;;5082022;28;29810;-96
2022/12/02 03:00:40;;;;;;;;;0.00;0.00;;;;;;;;5082267;28;28620;-96
2022/12/02 03:03:06;;;;;;;;;0.00;0.00;;;;;;;;5082240;28;28658;-96
2022/12/02 03:05:32;;;;;;;;;0.00;0.00;;;;;;;;5082429;28;28729;-95
2022/12/02 03:07:57;;;;;;;;;0.00;0.00;;;;;;;;5081440;28;29962;-96
2022/12/02 03:10:22;;;;;;;;;0.00;0.00;;;;;;;;5078649;28;28504;-96
2022/12/02 03:12:52;;;;;;;;;0.00;0.00;;;;;;;;5073657;28;28595;-96
2022/12/02 03:15:18;;;;;;;;;0.00;0.00;;;;;;;;5073628;28;27856;-96
2022/12/02 03:17:43;;;;;;;;;0.00;0.00;;;;;;;;5073277;28;29994;-95
2022/12/02 03:20:08;;;;;;;;;0.00;0.00;;;;;;;;5073651;28;28794;-95
2022/12/02 03:22:34;;;;;;;;;0.00;0.00;;;;;;;;5086393;28;27968;-96
2022/12/02 03:25:00;;;;;;;;;0.00;0.00;;;;;;;;5093915;27;29005;-96
2022/12/02 03:27:26;;;;;;;;;0.00;0.00;;;;;;;;5093734;28;30374;-96
2022/12/02 03:29:52;;;;;;;;;0.00;0.00;;;;;;;;5094081;27;28666;-96
2022/12/02 03:32:17;;;;;;;;;0.00;0.00;;;;;;;;5094152;28;28310;-96
2022/12/02 03:34:42;;;;;;;;;0.00;0.00;;;;;;;;5093509;28;28492;-96
2022/12/02 03:37:08;;;;;;;;;0.00;0.00;;;;;;;;5093593;27;30588;-96
2022/12/02 03:39:33;;;;;;;;;0.00;0.00;;;;;;;;5093379;28;28687;-96
2022/12/02 03:41:59;;;;;;;;;0.00;0.00;;;;;;;;5093528;27;28520;-96
2022/12/02 03:44:24;;;;;;;;;0.00;0.00;;;;;;;;5093803;27;27929;-96
2022/12/02 03:46:49;;;;;;;;;0.00;0.00;;;;;;;;5093236;27;29722;-96
2022/12/02 03:49:16;;;;;;;;;0.00;0.00;;;;;;;;5093384;28;29738;-96
2022/12/02 03:51:41;;;;;;;;;0.00;0.00;;;;;;;;5093158;27;28270;-96
2022/12/02 03:54:06;;;;;;;;;0.67;0.67;;;;;;;;5093062;28;28468;-95
2022/12/02 03:56:36;;;;;;;;;0.00;0.00;;;;;;;;5093281;27;30123;-96
2022/12/02 03:59:01;;;;;;;;;0.00;0.00;;;;;;;;5096851;27;28729;-96
2022/12/02 04:01:26;;;;;;;;;0.00;0.00;;;;;;;;5101498;27;28495;-96
2022/12/02 04:03:52;;;;;;;;;0.00;0.00;;;;;;;;5085649;28;28457;-96
2022/12/02 04:06:17;;;;;;;;;0.00;0.00;;;;;;;;5080536;28;30085;-96
2022/12/02 04:08:42;;;;;;;;;0.00;0.00;;;;;;;;5079485;28;28622;-96
2022/12/02 04:11:07;;;;;;;;;0.00;0.00;;;;;;;;5079990;28;27945;-96
2022/12/02 04:13:32;;;;;;;;;0.00;0.00;;;;;;;;5078267;28;28564;-95
2022/12/02 04:15:58;;;;;;;;;0.00;0.00;;;;;;;;5072635;28;29929;-96
2022/12/02 04:18:23;;;;;;;;;0.00;0.00;;;;;;;;5072379;28;28732;-96
2022/12/02 04:20:48;;;;;;;;;0.00;0.00;;;;;;;;5072149;28;28533;-96
2022/12/02 04:23:13;;;;;;;;;0.00;0.00;;;;;;;;5071808;28;28584;-96
2022/12/02 04:25:38;;;;;;;;;0.00;0.00;;;;;;;;5072072;28;29890;-94
2022/12/02 04:28:04;;;;;;;;;0.00;0.00;;;;;;;;5078447;28;28608;-95
2022/12/02 04:30:29;;;;;;;;;0.00;0.00;;;;;;;;5092390;28;28479;-96
2022/12/02 04:32:54;;;;;;;;;0.00;0.00;;;;;;;;5092096;28;28509;-96
2022/12/02 04:35:19;;;;;;;;;0.00;0.00;;;;;;;;5091667;28;29887;-96
2022/12/02 04:37:45;;;;;;;;;0.00;0.00;;;;;;;;5092267;28;28838;-96
2022/12/02 04:40:11;;;;;;;;;0.00;0.00;;;;;;;;5092342;27;27912;-96
2022/12/02 04:42:37;;;;;;;;;0.00;0.00;;;;;;;;5074521;27;28513;-96
2022/12/02 04:45:02;;;;;;;;;0.00;0.00;;;;;;;;5071640;28;29807;-96
2022/12/02 04:47:27;;;;;;;;;16.67;16.67;;;;;;;;5072561;28;28256;-96
2022/12/02 04:49:52;;;;;;;;;0.00;0.00;;;;;;;;5071600;28;27827;-96
2022/12/02 04:52:18;;;;;;;;;0.00;0.00;;;;;;;;5071753;28;28011;-96
2022/12/02 04:54:43;;;;;;;;;0.00;0.00;;;;;;;;5071568;28;29800;-96
2022/12/02 04:57:08;;;;;;;;;0.00;0.00;;;;;;;;5072563;28;28598;-95
2022/12/02 04:59:33;;;;;;;;;67.00;58.00;;;;;;;;5071719;28;28410;-96
2022/12/02 05:01:59;;;;;;;;;0.00;0.00;;;;;;;;5075117;28;28333;-96
2022/12/02 05:04:24;;;;;;;;;4.67;2.00;;;;;;;;5079454;28;30101;-96
2022/12/02 05:06:49;;;;;;;;;0.00;0.00;;;;;;;;5079484;28;28739;-95
2022/12/02 05:09:14;;;;;;;;;0.00;0.00;;;;;;;;5079845;28;28529;-95
2022/12/02 05:11:39;;;;;;;;;0.00;0.00;;;;;;;;5079882;28;28409;-96
2022/12/02 05:14:05;;;;;;;;;0.00;0.00;;;;;;;;5079783;28;30066;-96
2022/12/02 05:16:30;;;;;;;;;0.00;0.00;;;;;;;;5075429;28;28413;-96
2022/12/02 05:18:55;;;;;;;;;0.00;0.00;;;;;;;;5071254;28;28450;-96
2022/12/02 05:21:20;;;;;;;;;0.00;0.00;;;;;;;;5075153;28;28568;-95
2022/12/02 05:23:45;;;;;;;;;0.00;0.00;;;;;;;;5092690;28;30203;-96
2022/12/02 05:26:11;;;;;;;;;0.00;0.00;;;;;;;;5094220;27;28863;-96
2022/12/02 05:28:36;;;;;;;;;0.00;0.00;;;;;;;;5091538;28;28449;-95
2022/12/02 05:31:01;;;;;;;;;0.00;0.00;;;;;;;;5091780;27;28338;-96
2022/12/02 05:33:26;;;;;;;;;0.00;0.00;;;;;;;;5091755;28;29806;-96
2022/12/02 05:35:52;;;;;;;;;0.00;0.00;;;;;;;;5091648;28;29792;-96
2022/12/02 05:38:17;;;;;;;;;0.00;0.00;;;;;;;;5092216;27;28373;-96
2022/12/02 05:40:42;;;;;;;;;0.00;0.00;;;;;;;;5091812;27;28426;-96
2022/12/02 05:43:16;;;;;;;;;0.00;0.00;;;;;;;;5092350;27;30163;-96
2022/12/02 05:45:41;;;;;;;;;0.00;0.00;;;;;;;;5092033;27;28924;-95
2022/12/02 05:48:10;;;;;;;;;0.00;0.00;;;;;;;;5090952;28;28406;-95
2022/12/02 05:50:35;;;;;;;;;0.00;0.00;;;;;;;;5092252;27;28752;-96
2022/12/02 05:53:00;;;;;;;;;0.00;0.00;;;;;;;;5091575;28;29599;-96
2022/12/02 05:55:26;;;;;;;;;0.00;0.00;;;;;;;;5091330;28;29656;-96
2022/12/02 05:57:54;;;;;;;;;0.00;0.00;;;;;;;;5091165;28;28255;-96
2022/12/02 06:00:21;;;;;;;;;0.00;0.00;;;;;;;;5091067;27;28548;-96
2022/12/02 06:02:49;;;;;;;;;0.00;0.00;;;;;;;;5084658;28;30590;-96
2022/12/02 06:05:25;;;;;;;;;0.00;0.00;;;;;;;;5075945;28;28716;-96
2022/12/02 06:07:55;;;;;;;;;0.00;0.00;;;;;;;;5082238;28;28512;-96
2022/12/02 06:10:20;;;;;;;;;0.00;0.00;;;;;;;;5085799;28;28409;-96
2022/12/02 06:12:46;;;;;;;;;0.00;0.00;;;;;;;;5082162;28;29924;-96
2022/12/02 06:15:14;;;;;;;;;0.00;0.00;;;;;;;;5081972;28;28673;-96
2022/12/02 06:17:40;;;;;;;;;0.00;0.00;;;;;;;;5082224;28;28473;-96
2022/12/02 06:20:05;;;;;;;;;0.00;0.00;;;;;;;;5076225;28;27886;-96
2022/12/02 06:22:31;;;;;;;;;0.00;0.00;;;;;;;;5074394;28;30352;-96
2022/12/02 06:24:59;;;;;;;;;0.00;0.00;;;;;;;;5074652;28;28741;-96
2022/12/02 06:27:25;;;;;;;;;0.00;0.00;;;;;;;;5075145;28;28342;-95
2022/12/02 06:30:04;;;;;;;;;0.00;0.00;;;;;;;;5094444;28;28359;-96
2022/12/02 06:32:37;;;;;;;;;0.00;0.00;;;;;;;;5094151;28;30683;-96
2022/12/02 06:35:04;;;;;;;;;0.00;0.00;;;;;;;;5094791;28;28685;-95
2022/12/02 06:37:29;;;;;;;;;0.00;0.00;;;;;;;;5094049;28;28793;-96
2022/12/02 06:39:56;;;;;;;;;0.00;0.00;;;;;;;;5094761;28;28472;-96
2022/12/02 06:42:24;;;;;;;;;0.00;0.00;;;;;;;;5091433;28;30034;-96
2022/12/02 06:45:05;;;;;;;;;0.00;0.00;;;;;;;;5074345;28;28613;-95
2022/12/02 06:47:36;;;;;;;;;0.00;0.00;;;;;;;;5073868;28;28503;-96
2022/12/02 06:50:04;;;;;;;;;0.00;0.00;;;;;;;;5073530;28;28777;-95
2022/12/02 06:52:37;;;;;;;;;0.00;0.00;;;;;;;;5073909;28;29926;-95
2022/12/02 06:55:06;;;;;;;;;1.00;1.00;;;;;;;;5073810;28;28908;-96
2022/12/02 06:57:32;;;;;;;;;0.00;0.00;;;;;;;;5073468;28;28797;-96
2022/12/02 06:59:57;;;;;;;;;0.00;0.00;;;;;;;;5073632;28;28548;-95
2022/12/02 07:02:26;;;;;;;;;0.00;0.00;;;;;;;;5073500;28;30181;-96
2022/12/02 07:04:51;;;;;;;;;0.67;0.67;;;;;;;;5075248;28;28570;-96
2022/12/02 07:07:19;;;;;;;;;0.00;0.00;;;;;;;;5075324;28;28255;-96
2022/12/02 07:09:51;;;;;;;;;0.00;0.00;;;;;;;;5082005;28;28562;-96
2022/12/02 07:12:21;;;;;;;;;0.00;0.00;;;;;;;;5081280;28;31237;-96
2022/12/02 07:14:50;;;;;;;;;0.00;0.00;;;;;;;;5080046;28;29360;-96
2022/12/02 07:17:21;;;;;;;;;0.00;0.00;;;;;;;;5079527;28;27859;-96
2022/12/02 07:19:48;;;;;;;;;0.00;0.00;;;;;;;;5119434;22;28426;-96
2022/12/02 07:22:14;;;;;;;;;0.00;0.00;;;;;;;;5099624;27;30208;-95
2022/12/02 07:24:40;;;;;;;;;31.00;31.00;;;;;;;;5101113;28;28558;-96
2022/12/02 07:27:12;;;;;;;;;0.00;0.00;;;;;;;;5098331;28;28678;-92
2022/12/02 07:29:37;;;;;;;;;0.00;0.00;;;;;;;;5093374;27;28482;-91
2022/12/02 07:32:03;;;;;;;;;0.00;0.00;;;;;;;;5112492;27;28520;-90
2022/12/02 07:34:28;;;;;;;;;0.00;0.00;;;;;;;;5094760;27;28790;-89
2022/12/02 07:36:53;;;;;;;;;0.00;0.00;;;;;;;;5112285;27;28482;-89
2022/12/02 07:39:18;;;;;;;;;0.00;0.00;;;;;;;;5093065;27;28583;-88
2022/12/02 07:41:44;;;;;;;;;6.00;6.00;;;;;;;;5093395;27;29069;-90
2022/12/02 07:44:09;;;;;;;;;0.00;0.00;;;;;;;;5111307;27;28700;-88
2022/12/02 07:46:34;;;;;;;;;0.00;0.00;;;;;;;;5093111;27;28552;-88
2022/12/02 07:48:59;;;;;;;;;0.00;0.00;;;;;;;;5101515;27;28521;-89
2022/12/02 07:51:25;;;;;;;;;0.00;0.00;;;;;;;;5079821;27;29202;-88
2022/12/02 07:53:50;;;;;;;;;0.00;0.00;;;;;;;;5090947;28;28454;-89
2022/12/02 07:56:15;;;;;;;;;0.00;0.00;;;;;;;;5073297;28;28428;-88
2022/12/02 07:58:40;;;;;;;;;0.00;0.00;;;;;;;;5072831;28;28399;-88
2022/12/02 08:01:05;;;;;;;;;0.00;0.00;;;;;;;;5072702;28;29039;-88
2022/12/02 08:03:31;;;;;;;;;0.00;0.00;;;;;;;;5090746;27;28512;-88
2022/12/02 08:05:56;;;;;;;;;0.00;0.00;;;;;;;;5073283;28;28454;-89
2022/12/02 08:08:21;;;;;;;;;3.00;3.00;;;;;;;;5072559;28;28394;-89
2022/12/02 08:10:46;;;;;;;;;0.00;0.00;;;;;;;;5090296;27;31198;-89
2022/12/02 08:13:11;;;;;;;;;0.00;0.00;;;;;;;;5091690;27;28619;-89
2022/12/02 08:15:36;;;;;;;;;12.00;12.00;;;;;;;;5097316;27;28834;-89
2022/12/02 08:18:02;;;;;;;;;0.00;0.00;;;;;;;;5093185;27;28495;-87
2022/12/02 08:20:28;;;;;;;;;0.00;0.00;;;;;;;;5091821;27;31080;-87
2022/12/02 08:22:53;;;;;;;;;3.00;3.00;;;;;;;;5087872;27;28903;-86
2022/12/02 08:25:18;;;;;;;;;3.00;3.00;;;;;;;;5088004;27;28618;-87
2022/12/02 08:27:43;;;;;;;;;0.00;0.00;;;;;;;;5095517;27;28601;-87
2022/12/02 08:30:09;;;;;;;;;0.00;0.00;;;;;;;;5091265;27;31333;-88
2022/12/02 08:32:34;;;;;;;;;1.00;1.00;;;;;;;;5089010;27;28457;-88
2022/12/02 08:35:00;;;;;;;;;1.00;1.00;;;;;;;;5086369;27;27881;-87
2022/12/02 08:37:25;;;;;;;;;0.00;0.00;;;;;;;;5107383;27;28920;-85
2022/12/02 08:39:50;;;;;;;;;0.00;0.00;;;;;;;;5091090;27;31981;-87
2022/12/02 08:42:15;;;;;;;;;0.00;0.00;;;;;;;;5088433;27;29491;-87
2022/12/02 08:44:40;;;;;;;;;1.00;1.00;;;;;;;;5109140;27;28464;-88
2022/12/02 08:47:06;;;;;;;;;0.00;0.00;;;;;;;;5115535;27;28370;-88
2022/12/02 08:49:31;;;;;;;;;0.00;0.00;;;;;;;;5107930;27;29409;-88
2022/12/02 08:51:56;;;;;;;;;0.00;0.00;;;;;;;;5090212;27;28587;-88
2022/12/02 08:54:21;;;;;;;;;0.00;0.00;;;;;;;;5091264;27;28319;-88
2022/12/02 08:56:48;;;;;;;;;0.00;0.00;;;;;;;;5090298;27;28687;-88
2022/12/02 08:59:13;;;;;;;;;0.00;0.00;;;;;;;;5100422;27;28507;-88
2022/12/02 09:01:38;;;;;;;;;0.00;0.00;;;;;;;;5086706;27;28811;-87
2022/12/02 09:04:04;;;;;;;;;0.00;0.00;;;;;;;;5090589;27;28560;-87
2022/12/02 09:06:29;;;;;;;;;0.00;0.00;;;;;;;;5108952;27;28933;-88
2022/12/02 09:08:54;;;;;;;;;0.00;0.00;;;;;;;;5089847;27;29570;-88
2022/12/02 09:11:19;;;;;;;;;0.00;0.00;;;;;;;;5090124;27;28513;-88
2022/12/02 09:13:44;;;;;;;;;0.00;0.00;;;;;;;;5107669;27;28530;-88
2022/12/02 09:16:09;;;;;;;;;0.00;0.00;;;;;;;;5086938;27;28887;-89
2022/12/02 09:18:35;;;;;;;;;0.00;0.00;;;;;;;;5091630;27;29702;-87
2022/12/02 09:21:00;;;;;;;;;0.00;0.00;;;;;;;;5108139;27;28498;-87
2022/12/02 09:23:27;;;;;;;;;0.00;0.00;;;;;;;;5082718;27;28927;-87
2022/12/02 09:25:52;;;;;;;;;6.00;6.00;;;;;;;;5108190;27;28530;-87
2022/12/02 09:28:20;;;;;;;;;0.00;0.00;;;;;;;;5109651;27;28427;-87
2022/12/02 09:30:46;;;;;;;;;0.00;0.00;;;;;;;;5107042;27;28630;-87
2022/12/02 09:33:11;;;;;;;;;0.00;0.00;;;;;;;;5088397;27;28862;-86
2022/12/02 09:35:36;;;;;;;;;0.00;0.00;;;;;;;;5087246;27;28618;-87
2022/12/02 09:38:01;;;;;;;;;0.00;0.00;;;;;;;;5085579;27;29358;-87
2022/12/02 09:40:26;;;;;;;;;0.00;0.00;;;;;;;;5104110;27;28446;-87
2022/12/02 09:42:52;;;;;;;;;0.00;0.00;;;;;;;;5093005;27;28555;-87
2022/12/02 09:45:17;;;;;;;;;0.00;0.00;;;;;;;;5089319;27;28825;-87
2022/12/02 09:47:42;;;;;;;;;0.00;0.00;;;;;;;;5091455;27;29623;-87
2022/12/02 09:50:11;;;;;;;;;0.00;0.00;;;;;;;;5091588;27;28564;-87
2022/12/02 09:52:37;;;;;;;;;0.00;0.00;;;;;;;;5087322;27;28440;-88
2022/12/02 09:55:02;;;;;;;;;1.00;1.00;;;;;;;;5092816;27;28375;-87
2022/12/02 09:57:29;;;;;;;;;0.00;0.00;;;;;;;;5096303;27;30006;-87
2022/12/02 09:59:56;;;;;;;;;0.00;0.00;;;;;;;;5111271;27;28598;-87
2022/12/02 10:02:25;;;;;;;;;0.00;0.00;;;;;;;;5089922;27;28534;-87
2022/12/02 10:04:51;;;;;;;;;0.00;0.00;;;;;;;;5090679;27;28538;-87
2022/12/02 10:07:16;;;;;;;;;0.00;0.00;;;;;;;;5091368;27;30236;-87
2022/12/02 10:09:41;;;;;;;;;40.67;37.33;;;;;;;;5109947;27;28486;-87
2022/12/02 10:12:07;;;;;;;;;0.00;0.00;;;;;;;;5093206;27;28478;-86
2022/12/02 10:14:32;;;;;;;;;0.00;0.00;;;;;;;;5110660;27;28422;-87
2022/12/02 10:16:58;;;;;;;;;0.00;0.00;;;;;;;;5091705;27;29050;-87
2022/12/02 10:19:23;;;;;;;;;0.00;0.00;;;;;;;;5086892;27;28560;-87
2022/12/02 10:21:48;;;;;;;;;0.00;0.00;;;;;;;;5111291;27;28467;-87
2022/12/02 10:24:14;;;;;;;;;1.00;1.00;;;;;;;;5109855;27;28496;-86
2022/12/02 10:26:44;;;;;;;;;0.00;0.00;;;;;;;;5093406;27;29679;-86
2022/12/02 10:29:13;;;;;;;;;0.00;0.00;;;;;;;;5092521;27;29841;-86
2022/12/02 10:31:51;;;;;;;;;0.00;0.00;;;;;;;;5107739;27;28594;-86
2022/12/02 10:34:18;;;;;;;;;0.00;0.00;;;;;;;;5092560;27;28603;-87
2022/12/02 10:36:44;;;;;;;;;0.00;0.00;;;;;;;;5114988;27;28814;-87
2022/12/02 10:39:17;;;;;;;;;0.00;0.00;;;;;;;;5088183;27;28985;-87
2022/12/02 10:41:43;;;;;;;;;0.00;0.00;;;;;;;;5084578;27;28485;-86
2022/12/02 10:44:14;;;;;;;;;0.00;0.00;;;;;;;;5109674;27;28537;-88
2022/12/02 10:46:39;;;;;;;;;0.00;0.00;;;;;;;;5091258;27;29814;-88
2022/12/02 10:49:20;;;;;;;;;0.00;0.00;;;;;;;;5081038;27;29904;-87
2022/12/02 10:51:45;;;;;;;;;0.00;0.00;;;;;;;;5103230;27;28599;-85
2022/12/02 10:54:24;;;;;;;;;0.00;0.00;;;;;;;;5092444;27;28921;-84
2022/12/02 10:56:50;;;;;;;;;0.00;0.00;;;;;;;;5111447;27;28474;-85
2022/12/02 10:59:15;;;;;;;;;0.00;0.00;;;;;;;;5108640;27;28526;-85
2022/12/02 11:01:41;;;;;;;;;0.00;0.00;;;;;;;;5107935;27;28529;-84
2022/12/02 11:04:10;;;;;;;;;0.00;0.00;;;;;;;;5091722;27;28460;-86
2022/12/02 11:06:35;;;;;;;;;0.00;0.00;;;;;;;;5110792;27;29499;-85
2022/12/02 11:09:00;;;;;;;;;0.00;0.00;;;;;;;;5089908;27;28518;-86
2022/12/02 11:11:25;;;;;;;;;4.00;4.00;;;;;;;;5110786;27;28550;-86
2022/12/02 11:13:50;;;;;;;;;0.00;0.00;;;;;;;;5105577;27;28537;-86
2022/12/02 11:16:27;;;;;;;;;0.00;0.00;;;;;;;;5105412;27;28828;-86
2022/12/02 11:19:02;;;;;;;;;0.00;0.00;;;;;;;;5086553;27;28565;-86
2022/12/02 11:21:27;;;;;;;;;0.00;0.00;;;;;;;;5109519;27;28549;-85
2022/12/02 11:24:11;;;;;;;;;0.00;0.00;;;;;;;;5097173;27;28815;-87
2022/12/02 11:27:09;;;;;;;;;0.00;0.00;;;;;;;;5101433;27;28658;-89
2022/12/02 11:29:36;;;;;;;;;0.00;0.00;;;;;;;;4999697;28;28570;-85
2022/12/02 11:32:20;;;;;;;;;0.00;0.00;;;;;;;;5012656;28;28610;-87
2022/12/02 11:34:48;;;;;;;;;0.00;0.00;;;;;;;;5009438;28;28562;-85
2022/12/02 11:37:26;;;;;;;;;0.00;0.00;;;;;;;;5011837;28;28726;-86
2022/12/02 11:39:52;;;;;;;;;0.00;0.00;;;;;;;;5008516;28;28920;-84
2022/12/02 11:42:20;;;;;;;;;0.00;0.00;;;;;;;;4992249;28;28559;-92
2022/12/02 11:44:45;;;;;;;;;0.00;0.00;;;;;;;;4994803;28;27928;-89
2022/12/02 11:47:23;;;;;;;;;0.00;0.00;;;;;;;;4993859;28;30960;-88
2022/12/02 11:49:48;;;;;;;;;0.00;0.00;;;;;;;;5011787;28;28515;-89
2022/12/02 11:52:16;;;;;;;;;2.00;2.00;;;;;;;;4991971;28;28926;-89
2022/12/02 11:54:44;;;;;;;;;0.00;0.00;;;;;;;;5018039;28;28341;-87
2022/12/02 11:57:35;;;;;;;;;1.00;1.00;;;;;;;;4998629;28;31114;-88
2022/12/02 12:00:00;;;;;;;;;0.00;0.00;;;;;;;;4994701;28;29554;-87
2022/12/02 12:02:25;;;;;;;;;0.00;0.00;;;;;;;;4992295;28;28441;-87
2022/12/02 12:05:04;;;;;;;;;0.00;0.00;;;;;;;;5053576;27;28515;-86
2022/12/02 12:07:59;;;;;;;;;0.00;0.00;;;;;;;;5103996;27;28745;-88
2022/12/02 12:10:29;;;;;;;;;0.00;0.00;;;;;;;;5073708;27;28595;-85
2022/12/02 12:13:13;;;;;;;;;0.00;0.00;;;;;;;;5106840;27;28473;-88
2022/12/02 12:15:46;;;;;;;;;0.00;0.00;;;;;;;;5107456;27;28564;-86
2022/12/02 12:18:31;;;;;;;;;0.00;0.00;;;;;;;;5091868;27;31169;-86
2022/12/02 12:20:57;;;;;;;;;0.00;0.00;;;;;;;;5075304;28;28935;-85
2022/12/02 12:23:26;;;;;;;;;3.33;3.33;;;;;;;;5089008;27;28333;-87
2022/12/02 12:25:51;;;;;;;;;0.00;0.00;;;;;;;;5089833;28;27896;-88
2022/12/02 12:28:25;;;;;;;;;0.00;0.00;;;;;;;;5091996;27;28393;-90
2022/12/02 12:30:50;;;;;;;;;0.00;0.00;;;;;;;;5089766;27;28430;-87
2022/12/02 12:33:15;;;;;;;;;0.00;0.00;;;;;;;;5072981;28;28555;-87
2022/12/02 12:35:40;;;;;;;;;0.00;0.00;;;;;;;;5075140;27;28518;-88
2022/12/02 12:38:05;;;;;;;;;0.00;0.00;;;;;;;;5088123;28;29804;-88
2022/12/02 12:40:30;;;;;;;;;0.00;0.00;;;;;;;;5092687;27;28648;-89
2022/12/02 12:42:56;;;;;;;;;8.00;8.00;;;;;;;;5089784;27;29907;-87
2022/12/02 12:45:22;;;;;;;;;0.00;0.00;;;;;;;;5062856;27;28582;-88
2022/12/02 12:47:47;;;;;;;;;0.00;0.00;;;;;;;;5065519;28;29957;-88
2022/12/02 12:50:12;;;;;;;;;0.00;0.00;;;;;;;;5066673;28;28988;-88
2022/12/02 12:52:37;;;;;;;;;0.00;0.00;;;;;;;;5089193;28;28646;-88
2022/12/02 12:55:03;;;;;;;;;0.00;0.00;;;;;;;;5063865;28;28657;-88
2022/12/02 12:57:28;;;;;;;;;14.00;6.00;;;;;;;;5088878;28;31203;-88
2022/12/02 12:59:53;;;;;;;;;0.00;0.00;;;;;;;;5088946;28;28912;-87
2022/12/02 13:02:19;;;;;;;;;125.50;103.75;;;;;;;;5089013;28;28529;-87
2022/12/02 13:04:44;;;;;;;;;0.00;0.00;;;;;;;;5087617;27;28384;-87
2022/12/02 13:07:09;;;;;;;;;0.00;0.00;;;;;;;;5070684;28;31186;-87
2022/12/02 13:09:34;;;;;;;;;0.00;0.00;;;;;;;;5068604;28;28634;-87
2022/12/02 13:11:59;;;;;;;;;0.00;0.00;;;;;;;;5090287;27;28521;-87
2022/12/02 13:14:24;;;;;;;;;0.00;0.00;;;;;;;;5089840;28;28438;-87
2022/12/02 13:16:50;;;;;;;;;0.00;0.00;;;;;;;;5073778;28;28650;-88
2022/12/02 13:19:15;;;;;;;;;0.00;0.00;;;;;;;;5101446;27;28564;-92
2022/12/02 13:21:40;;;;;;;;;0.00;0.00;;;;;;;;5095404;27;28595;-87
2022/12/02 13:24:06;;;;;;;;;0.00;0.00;;;;;;;;5095045;27;27938;-86
2022/12/02 13:26:31;;;;;;;;;0.00;0.00;;;;;;;;5096059;27;30154;-86
2022/12/02 13:28:56;;;;;;;;;0.00;0.00;;;;;;;;5104877;27;28590;-87
2022/12/02 13:31:21;;;;;;;;;0.00;0.00;;;;;;;;5107641;27;28461;-87
2022/12/02 13:33:46;;;;;;;;;0.00;0.00;;;;;;;;5093500;27;28386;-90
2022/12/02 13:36:12;;;;;;;;;0.00;0.00;;;;;;;;5094220;27;30173;-92
2022/12/02 13:38:37;;;;;;;;;0.00;0.00;;;;;;;;5099401;27;28755;-89
2022/12/02 13:41:02;;;;;;;;;0.00;0.00;;;;;;;;5096065;27;28579;-86
2022/12/02 13:43:27;;;;;;;;;0.00;0.00;;;;;;;;5113350;27;28525;-90
2022/12/02 13:45:52;;;;;;;;;0.00;0.00;;;;;;;;5094502;27;30173;-91
2022/12/02 13:48:18;;;;;;;;;0.00;0.00;;;;;;;;5098561;27;28599;-93
2022/12/02 13:50:43;;;;;;;;;0.00;0.00;;;;;;;;5098681;27;28576;-92
2022/12/02 13:53:08;;;;;;;;;0.00;0.00;;;;;;;;5096707;27;28630;-92
2022/12/02 13:55:33;;;;;;;;;0.00;0.00;;;;;;;;5095834;27;28576;-90
2022/12/02 13:57:58;;;;;;;;;0.00;0.00;;;;;;;;5102323;27;29075;-92
2022/12/02 14:00:23;;;;;;;;;0.00;0.00;;;;;;;;5118919;27;28501;-88
2022/12/02 14:02:49;;;;;;;;;0.00;0.00;;;;;;;;5112770;27;28549;-92
2022/12/02 14:05:14;;;;;;;;;0.00;0.00;;;;;;;;5113503;27;29880;-90
2022/12/02 14:07:39;;;;;;;;;0.00;0.00;;;;;;;;5093530;27;28593;-90
2022/12/02 14:10:04;;;;;;;;;0.00;0.00;;;;;;;;5118075;27;28307;-90
2022/12/02 14:12:30;;;;;;;;;0.00;0.00;;;;;;;;5115389;27;28714;-90
2022/12/02 14:14:55;;;;;;;;;0.00;0.00;;;;;;;;5094734;27;31318;-90
2022/12/02 14:17:20;;;;;;;;;0.00;0.00;;;;;;;;5121697;27;27927;-91
2022/12/02 14:19:45;;;;;;;;;0.00;0.00;;;;;;;;5101642;27;28550;-90
2022/12/02 14:22:10;;;;;;;;;0.00;0.00;;;;;;;;5097192;27;28495;-90
2022/12/02 14:24:35;;;;;;;;;0.00;0.00;;;;;;;;5115486;27;29203;-90
2022/12/02 14:27:01;;;;;;;;;0.00;0.00;;;;;;;;5096524;27;28530;-90
2022/12/02 14:29:26;;;;;;;;;0.00;0.00;;;;;;;;5103280;27;27900;-91
2022/12/02 14:31:51;;;;;;;;;4.00;4.00;;;;;;;;5100721;27;28370;-93
2022/12/02 14:34:16;;;;;;;;;0.00;0.00;;;;;;;;5100496;27;29958;-92
2022/12/02 14:36:42;;;;;;;;;0.00;0.00;;;;;;;;5109290;27;29339;-94
2022/12/02 14:39:07;;;;;;;;;0.00;0.00;;;;;;;;5101844;27;28479;-95
2022/12/02 14:41:32;;;;;;;;;0.33;0.33;;;;;;;;5115246;27;28482;-95